sensor_id;sensor_type;location;lat;lon;timestamp;temperature;humidity
16732;DHT22;8484;50.904;9.192;2023-03-23T00:00:14;12.50;99.90
16732;DHT22;8484;50.904;9.192;2023-03-23T00:02:41;12.40;99.90
16732;DHT22;8484;50.904;9.192;2023-03-23T00:05:09;12.50;99.90
16732;DHT22;8484;50.904;9.192;2023-03-23T00:07:36;12.50;99.90
16732;DHT22;8484;50.904;9.192;2023-03-23T00:10:04;12.70;99.90
16732;DHT22;8484;50.904;9.192;2023-03-23T00:12:33;12.60;99.90
16732;DHT22;8484;50.904;9.192;2023-03-23T00:15:01;12.60;99.90
16732;DHT22;8484;50.904;9.192;2023-03-23T00:17:28;12.60;99.90
16732;DHT22;8484;50.904;9.192;2023-03-23T00:19:56;12.60;99.90
16732;DHT22;8484;50.904;9.192;2023-03-23T00:22:23;12.60;99.90
16732;DHT22;8484;50.904;9.192;2023-03-23T00:24:51;12.20;99.90
16732;DHT22;8484;50.904;9.192;2023-03-23T00:27:18;11.90;99.90
16732;DHT22;8484;50.904;9.192;2023-03-23T00:29:49;11.80;99.90
16732;DHT22;8484;50.904;9.192;2023-03-23T00:32:19;12.00;99.90
16732;DHT22;8484;50.904;9.192;2023-03-23T00:34:47;12.10;99.90
16732;DHT22;8484;50.904;9.192;2023-03-23T00:37:15;12.10;99.90
16732;DHT22;8484;50.904;9.192;2023-03-23T00:39:43;12.20;99.90
16732;DHT22;8484;50.904;9.192;2023-03-23T00:42:13;12.30;99.90
16732;DHT22;8484;50.904;9.192;2023-03-23T00:44:40;12.40;99.90
16732;DHT22;8484;50.904;9.192;2023-03-23T00:47:09;12.30;99.90
16732;DHT22;8484;50.904;9.192;2023-03-23T00:49:36;12.20;99.90
16732;DHT22;8484;50.904;9.192;2023-03-23T00:52:05;11.90;99.90
16732;DHT22;8484;50.904;9.192;2023-03-23T00:54:32;11.70;99.90
16732;DHT22;8484;50.904;9.192;2023-03-23T00:57:00;11.60;99.90
16732;DHT22;8484;50.904;9.192;2023-03-23T00:59:27;11.50;99.90
16732;DHT22;8484;50.904;9.192;2023-03-23T01:01:54;11.70;99.90
16732;DHT22;8484;50.904;9.192;2023-03-23T01:04:22;11.70;99.90
16732;DHT22;8484;50.904;9.192;2023-03-23T01:06:50;11.70;99.90
16732;DHT22;8484;50.904;9.192;2023-03-23T01:09:18;11.50;99.90
16732;DHT22;8484;50.904;9.192;2023-03-23T01:11:47;11.30;99.90
16732;DHT22;8484;50.904;9.192;2023-03-23T01:14:17;11.30;99.90
16732;DHT22;8484;50.904;9.192;2023-03-23T01:16:44;11.40;99.90
16732;DHT22;8484;50.904;9.192;2023-03-23T01:19:12;11.50;99.90
16732;DHT22;8484;50.904;9.192;2023-03-23T01:21:40;11.50;99.90
16732;DHT22;8484;50.904;9.192;2023-03-23T01:24:07;11.40;99.90
16732;DHT22;8484;50.904;9.192;2023-03-23T01:26:34;11.30;99.90
16732;DHT22;8484;50.904;9.192;2023-03-23T01:29:01;11.30;99.90
16732;DHT22;8484;50.904;9.192;2023-03-23T01:31:28;11.30;99.90
16732;DHT22;8484;50.904;9.192;2023-03-23T01:33:55;11.20;99.90
16732;DHT22;8484;50.904;9.192;2023-03-23T01:36:24;11.20;99.90
16732;DHT22;8484;50.904;9.192;2023-03-23T01:38:53;11.20;99.90
16732;DHT22;8484;50.904;9.192;2023-03-23T01:41:21;11.20;99.90
16732;DHT22;8484;50.904;9.192;2023-03-23T01:43:56;11.00;99.90
16732;DHT22;8484;50.904;9.192;2023-03-23T01:46:25;10.90;99.90
16732;DHT22;8484;50.904;9.192;2023-03-23T01:48:53;10.60;99.90
16732;DHT22;8484;50.904;9.192;2023-03-23T01:51:21;10.50;99.90
16732;DHT22;8484;50.904;9.192;2023-03-23T01:53:51;10.50;99.90
16732;DHT22;8484;50.904;9.192;2023-03-23T01:56:25;10.40;99.90
16732;DHT22;8484;50.904;9.192;2023-03-23T01:58:56;10.30;99.90
16732;DHT22;8484;50.904;9.192;2023-03-23T02:01:23;10.30;99.90
16732;DHT22;8484;50.904;9.192;2023-03-23T02:03:54;10.30;99.90
16732;DHT22;8484;50.904;9.192;2023-03-23T02:06:21;10.30;99.90
16732;DHT22;8484;50.904;9.192;2023-03-23T02:08:49;10.20;99.90
16732;DHT22;8484;50.904;9.192;2023-03-23T02:11:19;10.20;99.90
16732;DHT22;8484;50.904;9.192;2023-03-23T02:13:49;10.20;99.90
16732;DHT22;8484;50.904;9.192;2023-03-23T02:16:23;10.20;99.90
16732;DHT22;8484;50.904;9.192;2023-03-23T02:18:58;10.10;99.90
16732;DHT22;8484;50.904;9.192;2023-03-23T02:22:01;10.10;99.90
16732;DHT22;8484;50.904;9.192;2023-03-23T02:24:50;10.10;99.90
16732;DHT22;8484;50.904;9.192;2023-03-23T02:27:40;10.00;99.90
16732;DHT22;8484;50.904;9.192;2023-03-23T02:30:27;10.00;99.90
16732;DHT22;8484;50.904;9.192;2023-03-23T02:33:28;10.00;99.90
16732;DHT22;8484;50.904;9.192;2023-03-23T02:35:58;10.20;99.90
16732;DHT22;8484;50.904;9.192;2023-03-23T02:38:31;10.30;99.90
16732;DHT22;8484;50.904;9.192;2023-03-23T02:41:01;10.30;99.90
16732;DHT22;8484;50.904;9.192;2023-03-23T02:43:33;10.30;99.90
16732;DHT22;8484;50.904;9.192;2023-03-23T02:46:04;10.30;99.90
16732;DHT22;8484;50.904;9.192;2023-03-23T02:48:35;10.30;99.90
16732;DHT22;8484;50.904;9.192;2023-03-23T02:51:03;10.30;99.90
16732;DHT22;8484;50.904;9.192;2023-03-23T02:53:33;10.40;99.90
16732;DHT22;8484;50.904;9.192;2023-03-23T02:56:02;10.40;99.90
16732;DHT22;8484;50.904;9.192;2023-03-23T02:58:30;10.40;99.90
16732;DHT22;8484;50.904;9.192;2023-03-23T03:00:58;10.40;99.90
16732;DHT22;8484;50.904;9.192;2023-03-23T03:03:28;10.30;99.90
16732;DHT22;8484;50.904;9.192;2023-03-23T03:06:05;10.30;99.90
16732;DHT22;8484;50.904;9.192;2023-03-23T03:08:37;10.20;99.90
16732;DHT22;8484;50.904;9.192;2023-03-23T03:11:12;10.20;99.90
16732;DHT22;8484;50.904;9.192;2023-03-23T03:13:45;10.10;99.90
16732;DHT22;8484;50.904;9.192;2023-03-23T03:16:22;10.00;99.90
16732;DHT22;8484;50.904;9.192;2023-03-23T03:18:54;10.00;99.90
16732;DHT22;8484;50.904;9.192;2023-03-23T03:21:28;9.90;99.90
16732;DHT22;8484;50.904;9.192;2023-03-23T03:24:01;9.90;99.90
16732;DHT22;8484;50.904;9.192;2023-03-23T03:26:31;9.80;99.90
16732;DHT22;8484;50.904;9.192;2023-03-23T03:29:00;9.80;99.90
16732;DHT22;8484;50.904;9.192;2023-03-23T03:31:30;9.80;99.90
16732;DHT22;8484;50.904;9.192;2023-03-23T03:33:57;9.70;99.90
16732;DHT22;8484;50.904;9.192;2023-03-23T03:36:30;9.70;99.90
16732;DHT22;8484;50.904;9.192;2023-03-23T03:39:01;9.70;99.90
16732;DHT22;8484;50.904;9.192;2023-03-23T03:41:29;9.70;99.90
16732;DHT22;8484;50.904;9.192;2023-03-23T03:43:56;9.70;99.90
16732;DHT22;8484;50.904;9.192;2023-03-23T03:46:23;9.70;99.90
16732;DHT22;8484;50.904;9.192;2023-03-23T03:48:53;9.70;99.90
16732;DHT22;8484;50.904;9.192;2023-03-23T03:51:20;9.70;99.90
16732;DHT22;8484;50.904;9.192;2023-03-23T03:53:48;9.70;99.90
16732;DHT22;8484;50.904;9.192;2023-03-23T03:56:15;9.50;99.90
16732;DHT22;8484;50.904;9.192;2023-03-23T03:58:43;9.60;99.90
16732;DHT22;8484;50.904;9.192;2023-03-23T04:01:10;9.60;99.90
16732;DHT22;8484;50.904;9.192;2023-03-23T04:03:37;9.60;99.90
16732;DHT22;8484;50.904;9.192;2023-03-23T04:06:05;9.60;99.90
16732;DHT22;8484;50.904;9.192;2023-03-23T04:08:33;9.60;99.90
16732;DHT22;8484;50.904;9.192;2023-03-23T04:11:02;9.60;99.90
16732;DHT22;8484;50.904;9.192;2023-03-23T04:13:29;9.50;99.90
16732;DHT22;8484;50.904;9.192;2023-03-23T04:15:56;9.50;99.90
16732;DHT22;8484;50.904;9.192;2023-03-23T04:18:23;9.50;99.90
16732;DHT22;8484;50.904;9.192;2023-03-23T04:20:50;9.50;99.90
16732;DHT22;8484;50.904;9.192;2023-03-23T04:23:21;9.50;99.90
16732;DHT22;8484;50.904;9.192;2023-03-23T04:25:49;9.50;99.90
16732;DHT22;8484;50.904;9.192;2023-03-23T04:28:19;9.50;99.90
16732;DHT22;8484;50.904;9.192;2023-03-23T04:30:49;9.50;99.90
16732;DHT22;8484;50.904;9.192;2023-03-23T04:33:18;9.50;99.90
16732;DHT22;8484;50.904;9.192;2023-03-23T04:35:46;9.50;99.90
16732;DHT22;8484;50.904;9.192;2023-03-23T04:38:14;9.50;99.90
16732;DHT22;8484;50.904;9.192;2023-03-23T04:40:42;9.40;99.90
16732;DHT22;8484;50.904;9.192;2023-03-23T04:43:09;9.40;99.90
16732;DHT22;8484;50.904;9.192;2023-03-23T04:45:39;9.40;99.90
16732;DHT22;8484;50.904;9.192;2023-03-23T04:48:11;9.40;99.90
16732;DHT22;8484;50.904;9.192;2023-03-23T04:50:39;9.30;99.90
16732;DHT22;8484;50.904;9.192;2023-03-23T04:53:06;9.40;99.90
16732;DHT22;8484;50.904;9.192;2023-03-23T04:55:35;9.40;99.90
16732;DHT22;8484;50.904;9.192;2023-03-23T04:58:02;9.40;99.90
16732;DHT22;8484;50.904;9.192;2023-03-23T05:00:32;9.40;99.90
16732;DHT22;8484;50.904;9.192;2023-03-23T05:03:01;9.40;99.90
16732;DHT22;8484;50.904;9.192;2023-03-23T05:05:28;9.40;99.90
16732;DHT22;8484;50.904;9.192;2023-03-23T05:07:56;9.30;99.90
16732;DHT22;8484;50.904;9.192;2023-03-23T05:10:24;9.20;99.90
16732;DHT22;8484;50.904;9.192;2023-03-23T05:12:52;9.20;99.90
16732;DHT22;8484;50.904;9.192;2023-03-23T05:15:20;9.10;99.90
16732;DHT22;8484;50.904;9.192;2023-03-23T05:17:47;9.10;99.90
16732;DHT22;8484;50.904;9.192;2023-03-23T05:20:16;9.10;99.90
16732;DHT22;8484;50.904;9.192;2023-03-23T05:22:46;9.10;99.90
16732;DHT22;8484;50.904;9.192;2023-03-23T05:25:15;9.10;99.90
16732;DHT22;8484;50.904;9.192;2023-03-23T05:27:46;9.10;99.90
16732;DHT22;8484;50.904;9.192;2023-03-23T05:30:19;9.10;99.90
16732;DHT22;8484;50.904;9.192;2023-03-23T05:32:46;9.20;99.90
16732;DHT22;8484;50.904;9.192;2023-03-23T05:35:18;9.10;99.90
16732;DHT22;8484;50.904;9.192;2023-03-23T05:37:45;9.20;99.90
16732;DHT22;8484;50.904;9.192;2023-03-23T05:40:13;9.20;99.90
16732;DHT22;8484;50.904;9.192;2023-03-23T05:42:41;9.10;99.90
16732;DHT22;8484;50.904;9.192;2023-03-23T05:45:11;9.10;99.90
16732;DHT22;8484;50.904;9.192;2023-03-23T05:47:38;9.10;99.90
16732;DHT22;8484;50.904;9.192;2023-03-23T05:50:07;9.10;99.90
16732;DHT22;8484;50.904;9.192;2023-03-23T05:52:37;9.00;99.90
16732;DHT22;8484;50.904;9.192;2023-03-23T05:55:06;9.00;99.90
16732;DHT22;8484;50.904;9.192;2023-03-23T05:57:33;9.00;99.90
16732;DHT22;8484;50.904;9.192;2023-03-23T06:00:00;9.10;99.90
16732;DHT22;8484;50.904;9.192;2023-03-23T06:02:39;9.10;99.90
16732;DHT22;8484;50.904;9.192;2023-03-23T06:05:10;9.10;99.90
16732;DHT22;8484;50.904;9.192;2023-03-23T06:07:38;9.10;99.90
16732;DHT22;8484;50.904;9.192;2023-03-23T06:10:07;9.10;99.90
16732;DHT22;8484;50.904;9.192;2023-03-23T06:12:34;9.20;99.90
16732;DHT22;8484;50.904;9.192;2023-03-23T06:15:01;9.20;99.90
16732;DHT22;8484;50.904;9.192;2023-03-23T06:17:29;9.30;99.90
16732;DHT22;8484;50.904;9.192;2023-03-23T06:19:56;9.30;99.90
16732;DHT22;8484;50.904;9.192;2023-03-23T06:22:23;9.30;99.90
16732;DHT22;8484;50.904;9.192;2023-03-23T06:24:51;9.40;99.90
16732;DHT22;8484;50.904;9.192;2023-03-23T06:27:23;9.40;99.90
16732;DHT22;8484;50.904;9.192;2023-03-23T06:29:50;9.30;99.90
16732;DHT22;8484;50.904;9.192;2023-03-23T06:32:17;9.40;99.90
16732;DHT22;8484;50.904;9.192;2023-03-23T06:34:44;9.40;99.90
16732;DHT22;8484;50.904;9.192;2023-03-23T06:37:13;9.40;99.90
16732;DHT22;8484;50.904;9.192;2023-03-23T06:39:41;9.60;99.90
16732;DHT22;8484;50.904;9.192;2023-03-23T06:42:11;9.70;99.90
16732;DHT22;8484;50.904;9.192;2023-03-23T06:44:38;9.80;99.90
16732;DHT22;8484;50.904;9.192;2023-03-23T06:47:05;9.80;99.90
16732;DHT22;8484;50.904;9.192;2023-03-23T06:49:33;9.90;99.90
16732;DHT22;8484;50.904;9.192;2023-03-23T06:52:00;10.00;99.90
16732;DHT22;8484;50.904;9.192;2023-03-23T06:54:28;10.10;99.90
16732;DHT22;8484;50.904;9.192;2023-03-23T06:56:55;10.20;99.90
16732;DHT22;8484;50.904;9.192;2023-03-23T06:59:24;10.20;99.90
16732;DHT22;8484;50.904;9.192;2023-03-23T07:01:51;10.30;99.90
16732;DHT22;8484;50.904;9.192;2023-03-23T07:04:18;10.30;99.90
16732;DHT22;8484;50.904;9.192;2023-03-23T07:06:46;10.30;99.90
16732;DHT22;8484;50.904;9.192;2023-03-23T07:09:14;10.30;99.90
16732;DHT22;8484;50.904;9.192;2023-03-23T07:11:41;10.30;99.90
16732;DHT22;8484;50.904;9.192;2023-03-23T07:14:09;10.30;99.90
16732;DHT22;8484;50.904;9.192;2023-03-23T07:16:37;10.40;99.90
16732;DHT22;8484;50.904;9.192;2023-03-23T07:19:04;10.50;99.90
16732;DHT22;8484;50.904;9.192;2023-03-23T07:21:31;10.50;99.90
16732;DHT22;8484;50.904;9.192;2023-03-23T07:23:58;10.50;99.90
16732;DHT22;8484;50.904;9.192;2023-03-23T07:26:25;10.60;99.90
16732;DHT22;8484;50.904;9.192;2023-03-23T07:28:52;10.60;99.90
16732;DHT22;8484;50.904;9.192;2023-03-23T07:31:19;10.60;99.90
16732;DHT22;8484;50.904;9.192;2023-03-23T07:33:48;10.60;99.90
16732;DHT22;8484;50.904;9.192;2023-03-23T07:36:14;10.70;99.90
16732;DHT22;8484;50.904;9.192;2023-03-23T07:38:41;10.70;99.90
16732;DHT22;8484;50.904;9.192;2023-03-23T07:41:09;10.70;99.90
16732;DHT22;8484;50.904;9.192;2023-03-23T07:43:36;10.80;99.90
16732;DHT22;8484;50.904;9.192;2023-03-23T07:46:03;10.90;99.90
16732;DHT22;8484;50.904;9.192;2023-03-23T07:48:30;11.00;99.90
16732;DHT22;8484;50.904;9.192;2023-03-23T07:50:59;11.10;99.90
16732;DHT22;8484;50.904;9.192;2023-03-23T07:53:26;11.20;99.90
16732;DHT22;8484;50.904;9.192;2023-03-23T07:55:53;11.30;99.90
16732;DHT22;8484;50.904;9.192;2023-03-23T07:58:20;11.40;99.90
16732;DHT22;8484;50.904;9.192;2023-03-23T08:00:48;11.50;99.90
16732;DHT22;8484;50.904;9.192;2023-03-23T08:03:16;11.70;99.90
16732;DHT22;8484;50.904;9.192;2023-03-23T08:05:43;11.70;99.90
16732;DHT22;8484;50.904;9.192;2023-03-23T08:08:14;11.90;99.90
16732;DHT22;8484;50.904;9.192;2023-03-23T08:10:41;11.80;99.90
16732;DHT22;8484;50.904;9.192;2023-03-23T08:13:09;11.80;99.90
16732;DHT22;8484;50.904;9.192;2023-03-23T08:15:35;11.80;99.90
16732;DHT22;8484;50.904;9.192;2023-03-23T08:18:03;11.90;99.90
16732;DHT22;8484;50.904;9.192;2023-03-23T08:20:31;11.90;99.90
16732;DHT22;8484;50.904;9.192;2023-03-23T08:22:59;12.00;99.90
16732;DHT22;8484;50.904;9.192;2023-03-23T08:25:30;12.00;99.90
16732;DHT22;8484;50.904;9.192;2023-03-23T08:27:58;12.00;99.90
16732;DHT22;8484;50.904;9.192;2023-03-23T08:30:27;12.10;99.90
16732;DHT22;8484;50.904;9.192;2023-03-23T08:32:56;11.90;99.90
16732;DHT22;8484;50.904;9.192;2023-03-23T08:35:23;11.90;99.90
16732;DHT22;8484;50.904;9.192;2023-03-23T08:37:50;11.90;99.90
16732;DHT22;8484;50.904;9.192;2023-03-23T08:40:21;12.00;99.90
16732;DHT22;8484;50.904;9.192;2023-03-23T08:42:51;12.00;99.90
16732;DHT22;8484;50.904;9.192;2023-03-23T08:45:20;12.00;99.90
16732;DHT22;8484;50.904;9.192;2023-03-23T08:47:48;12.10;99.90
16732;DHT22;8484;50.904;9.192;2023-03-23T08:50:21;12.20;99.90
16732;DHT22;8484;50.904;9.192;2023-03-23T08:52:48;12.10;99.90
16732;DHT22;8484;50.904;9.192;2023-03-23T08:55:17;12.10;99.90
16732;DHT22;8484;50.904;9.192;2023-03-23T08:57:44;12.20;99.90
16732;DHT22;8484;50.904;9.192;2023-03-23T09:00:16;12.30;99.90
16732;DHT22;8484;50.904;9.192;2023-03-23T09:02:45;12.40;99.90
16732;DHT22;8484;50.904;9.192;2023-03-23T09:05:13;12.50;99.90
16732;DHT22;8484;50.904;9.192;2023-03-23T09:07:43;12.40;99.90
16732;DHT22;8484;50.904;9.192;2023-03-23T09:10:11;12.40;99.90
16732;DHT22;8484;50.904;9.192;2023-03-23T09:12:40;12.50;99.90
16732;DHT22;8484;50.904;9.192;2023-03-23T09:15:08;12.50;99.90
16732;DHT22;8484;50.904;9.192;2023-03-23T09:17:43;12.40;99.90
16732;DHT22;8484;50.904;9.192;2023-03-23T09:20:12;12.40;99.90
16732;DHT22;8484;50.904;9.192;2023-03-23T09:22:41;12.60;99.90
16732;DHT22;8484;50.904;9.192;2023-03-23T09:25:10;12.50;99.90
16732;DHT22;8484;50.904;9.192;2023-03-23T09:27:38;12.50;99.90
16732;DHT22;8484;50.904;9.192;2023-03-23T09:30:08;12.60;99.90
16732;DHT22;8484;50.904;9.192;2023-03-23T09:32:37;12.70;99.90
16732;DHT22;8484;50.904;9.192;2023-03-23T09:35:06;12.70;99.90
16732;DHT22;8484;50.904;9.192;2023-03-23T09:37:34;12.70;99.90
16732;DHT22;8484;50.904;9.192;2023-03-23T09:40:02;12.80;99.90
16732;DHT22;8484;50.904;9.192;2023-03-23T09:42:38;12.80;99.90
16732;DHT22;8484;50.904;9.192;2023-03-23T09:45:18;12.70;99.90
16732;DHT22;8484;50.904;9.192;2023-03-23T09:48:03;12.80;99.90
16732;DHT22;8484;50.904;9.192;2023-03-23T09:50:42;12.70;99.90
16732;DHT22;8484;50.904;9.192;2023-03-23T09:53:14;12.90;99.90
16732;DHT22;8484;50.904;9.192;2023-03-23T09:55:43;12.80;99.90
16732;DHT22;8484;50.904;9.192;2023-03-23T09:58:16;12.90;99.90
16732;DHT22;8484;50.904;9.192;2023-03-23T10:00:49;12.90;99.90
16732;DHT22;8484;50.904;9.192;2023-03-23T10:03:20;12.80;99.90
16732;DHT22;8484;50.904;9.192;2023-03-23T10:05:50;12.90;99.90
16732;DHT22;8484;50.904;9.192;2023-03-23T10:08:20;12.80;99.90
16732;DHT22;8484;50.904;9.192;2023-03-23T10:10:56;12.70;99.90
16732;DHT22;8484;50.904;9.192;2023-03-23T10:13:47;12.50;99.90
16732;DHT22;8484;50.904;9.192;2023-03-23T10:16:21;12.60;99.90
16732;DHT22;8484;50.904;9.192;2023-03-23T10:18:57;12.60;99.90
16732;DHT22;8484;50.904;9.192;2023-03-23T10:21:26;12.60;99.90
16732;DHT22;8484;50.904;9.192;2023-03-23T10:23:59;12.70;99.90
16732;DHT22;8484;50.904;9.192;2023-03-23T10:26:37;12.50;99.90
16732;DHT22;8484;50.904;9.192;2023-03-23T10:29:14;12.60;99.90
16732;DHT22;8484;50.904;9.192;2023-03-23T10:31:45;12.60;99.90
16732;DHT22;8484;50.904;9.192;2023-03-23T10:34:22;12.80;99.90
16732;DHT22;8484;50.904;9.192;2023-03-23T10:37:02;12.70;99.90
16732;DHT22;8484;50.904;9.192;2023-03-23T10:39:37;12.70;99.90
16732;DHT22;8484;50.904;9.192;2023-03-23T10:42:05;12.60;99.90
16732;DHT22;8484;50.904;9.192;2023-03-23T10:44:34;12.50;99.90
16732;DHT22;8484;50.904;9.192;2023-03-23T10:47:03;12.60;99.90
16732;DHT22;8484;50.904;9.192;2023-03-23T10:49:36;12.60;99.90
16732;DHT22;8484;50.904;9.192;2023-03-23T10:52:10;12.40;99.90
16732;DHT22;8484;50.904;9.192;2023-03-23T10:54:46;12.40;99.90
16732;DHT22;8484;50.904;9.192;2023-03-23T10:57:22;12.30;99.90
16732;DHT22;8484;50.904;9.192;2023-03-23T10:59:50;12.30;99.90
16732;DHT22;8484;50.904;9.192;2023-03-23T11:02:18;12.50;99.90
16732;DHT22;8484;50.904;9.192;2023-03-23T11:04:59;12.50;99.90
16732;DHT22;8484;50.904;9.192;2023-03-23T11:07:29;12.70;99.90
16732;DHT22;8484;50.904;9.192;2023-03-23T11:10:06;13.10;99.90
16732;DHT22;8484;50.904;9.192;2023-03-23T11:12:34;13.80;99.90
16732;DHT22;8484;50.904;9.192;2023-03-23T11:15:21;14.30;99.90
16732;DHT22;8484;50.904;9.192;2023-03-23T11:17:56;14.00;99.90
16732;DHT22;8484;50.904;9.192;2023-03-23T11:20:26;13.90;99.90
16732;DHT22;8484;50.904;9.192;2023-03-23T11:22:55;13.90;99.90
16732;DHT22;8484;50.904;9.192;2023-03-23T11:25:22;13.60;99.90
16732;DHT22;8484;50.904;9.192;2023-03-23T11:27:50;13.50;99.90
16732;DHT22;8484;50.904;9.192;2023-03-23T11:30:24;13.40;99.90
16732;DHT22;8484;50.904;9.192;2023-03-23T11:32:52;13.20;99.90
16732;DHT22;8484;50.904;9.192;2023-03-23T11:35:22;13.00;99.90
16732;DHT22;8484;50.904;9.192;2023-03-23T11:37:52;13.00;99.90
16732;DHT22;8484;50.904;9.192;2023-03-23T11:40:21;13.00;99.90
16732;DHT22;8484;50.904;9.192;2023-03-23T11:42:56;13.00;99.90
16732;DHT22;8484;50.904;9.192;2023-03-23T11:45:30;13.00;99.90
16732;DHT22;8484;50.904;9.192;2023-03-23T11:48:06;13.00;99.90
16732;DHT22;8484;50.904;9.192;2023-03-23T11:50:46;12.90;99.90
16732;DHT22;8484;50.904;9.192;2023-03-23T11:53:23;12.80;99.90
16732;DHT22;8484;50.904;9.192;2023-03-23T11:56:12;13.00;99.90
16732;DHT22;8484;50.904;9.192;2023-03-23T11:58:40;12.90;99.90
16732;DHT22;8484;50.904;9.192;2023-03-23T12:01:15;12.90;99.90
16732;DHT22;8484;50.904;9.192;2023-03-23T12:04:14;12.90;99.90
16732;DHT22;8484;50.904;9.192;2023-03-23T12:06:50;12.90;99.90
16732;DHT22;8484;50.904;9.192;2023-03-23T12:09:29;12.90;99.90
16732;DHT22;8484;50.904;9.192;2023-03-23T12:12:12;12.90;99.90
16732;DHT22;8484;50.904;9.192;2023-03-23T12:14:48;12.90;99.90
16732;DHT22;8484;50.904;9.192;2023-03-23T12:17:25;12.90;99.90
16732;DHT22;8484;50.904;9.192;2023-03-23T12:20:13;12.80;99.90
16732;DHT22;8484;50.904;9.192;2023-03-23T12:22:55;12.80;99.90
16732;DHT22;8484;50.904;9.192;2023-03-23T12:26:03;12.80;99.90
16732;DHT22;8484;50.904;9.192;2023-03-23T12:28:40;12.80;99.90
16732;DHT22;8484;50.904;9.192;2023-03-23T12:31:17;13.00;99.90
16732;DHT22;8484;50.904;9.192;2023-03-23T12:33:54;13.20;99.90
16732;DHT22;8484;50.904;9.192;2023-03-23T12:36:33;13.20;99.90
16732;DHT22;8484;50.904;9.192;2023-03-23T12:39:37;13.20;99.90
16732;DHT22;8484;50.904;9.192;2023-03-23T12:42:13;13.10;99.90
16732;DHT22;8484;50.904;9.192;2023-03-23T12:44:46;13.00;99.90
16732;DHT22;8484;50.904;9.192;2023-03-23T12:47:24;13.00;99.90
16732;DHT22;8484;50.904;9.192;2023-03-23T12:49:58;13.00;99.90
16732;DHT22;8484;50.904;9.192;2023-03-23T12:52:33;13.00;99.90
16732;DHT22;8484;50.904;9.192;2023-03-23T12:55:13;13.10;99.90
16732;DHT22;8484;50.904;9.192;2023-03-23T12:57:48;13.30;99.90
16732;DHT22;8484;50.904;9.192;2023-03-23T13:00:21;13.40;99.90
16732;DHT22;8484;50.904;9.192;2023-03-23T13:02:56;14.00;99.90
16732;DHT22;8484;50.904;9.192;2023-03-23T13:05:35;14.80;99.90
16732;DHT22;8484;50.904;9.192;2023-03-23T13:08:09;15.50;99.90
16732;DHT22;8484;50.904;9.192;2023-03-23T13:10:41;15.60;99.90
16732;DHT22;8484;50.904;9.192;2023-03-23T13:13:16;14.60;99.90
16732;DHT22;8484;50.904;9.192;2023-03-23T13:15:53;14.60;99.90
16732;DHT22;8484;50.904;9.192;2023-03-23T13:18:30;14.40;99.90
16732;DHT22;8484;50.904;9.192;2023-03-23T13:21:07;14.90;99.90
16732;DHT22;8484;50.904;9.192;2023-03-23T13:23:39;14.80;99.90
16732;DHT22;8484;50.904;9.192;2023-03-23T13:26:09;15.60;99.90
16732;DHT22;8484;50.904;9.192;2023-03-23T13:28:50;15.80;99.90
16732;DHT22;8484;50.904;9.192;2023-03-23T13:31:21;15.60;99.90
16732;DHT22;8484;50.904;9.192;2023-03-23T13:33:53;15.30;99.90
16732;DHT22;8484;50.904;9.192;2023-03-23T13:36:30;15.70;99.90
16732;DHT22;8484;50.904;9.192;2023-03-23T13:38:59;15.70;99.90
16732;DHT22;8484;50.904;9.192;2023-03-23T13:41:27;15.50;99.90
16732;DHT22;8484;50.904;9.192;2023-03-23T13:44:17;16.00;99.90
16732;DHT22;8484;50.904;9.192;2023-03-23T13:46:55;15.50;99.90
16732;DHT22;8484;50.904;9.192;2023-03-23T13:49:22;15.00;99.90
16732;DHT22;8484;50.904;9.192;2023-03-23T13:52:14;14.60;99.90
16732;DHT22;8484;50.904;9.192;2023-03-23T13:54:44;14.50;99.90
16732;DHT22;8484;50.904;9.192;2023-03-23T13:57:26;14.60;99.90
16732;DHT22;8484;50.904;9.192;2023-03-23T14:00:08;14.50;99.90
16732;DHT22;8484;50.904;9.192;2023-03-23T14:02:38;14.50;99.90
16732;DHT22;8484;50.904;9.192;2023-03-23T14:05:29;14.40;99.90
16732;DHT22;8484;50.904;9.192;2023-03-23T14:07:58;14.10;99.90
16732;DHT22;8484;50.904;9.192;2023-03-23T14:10:33;14.10;99.90
16732;DHT22;8484;50.904;9.192;2023-03-23T14:13:01;14.20;99.90
16732;DHT22;8484;50.904;9.192;2023-03-23T14:15:37;14.20;99.90
16732;DHT22;8484;50.904;9.192;2023-03-23T14:18:11;14.10;99.90
16732;DHT22;8484;50.904;9.192;2023-03-23T14:20:40;14.10;99.90
16732;DHT22;8484;50.904;9.192;2023-03-23T14:23:15;14.20;99.90
16732;DHT22;8484;50.904;9.192;2023-03-23T14:25:43;14.20;99.90
16732;DHT22;8484;50.904;9.192;2023-03-23T14:28:18;14.30;99.90
16732;DHT22;8484;50.904;9.192;2023-03-23T14:30:52;14.50;99.90
16732;DHT22;8484;50.904;9.192;2023-03-23T14:33:19;14.50;99.90
16732;DHT22;8484;50.904;9.192;2023-03-23T14:35:47;14.30;99.90
16732;DHT22;8484;50.904;9.192;2023-03-23T14:38:16;14.50;99.90
16732;DHT22;8484;50.904;9.192;2023-03-23T14:40:45;14.30;99.90
16732;DHT22;8484;50.904;9.192;2023-03-23T14:43:16;14.30;99.90
16732;DHT22;8484;50.904;9.192;2023-03-23T14:45:51;14.20;99.90
16732;DHT22;8484;50.904;9.192;2023-03-23T14:48:20;14.20;99.90
16732;DHT22;8484;50.904;9.192;2023-03-23T14:50:52;14.10;99.90
16732;DHT22;8484;50.904;9.192;2023-03-23T14:53:22;14.00;99.90
16732;DHT22;8484;50.904;9.192;2023-03-23T14:55:50;13.90;99.90
16732;DHT22;8484;50.904;9.192;2023-03-23T14:58:20;13.90;99.90
16732;DHT22;8484;50.904;9.192;2023-03-23T15:00:53;13.80;99.90
16732;DHT22;8484;50.904;9.192;2023-03-23T15:03:24;13.70;99.90
16732;DHT22;8484;50.904;9.192;2023-03-23T15:05:53;13.80;99.90
16732;DHT22;8484;50.904;9.192;2023-03-23T15:08:25;13.70;99.90
16732;DHT22;8484;50.904;9.192;2023-03-23T15:11:01;13.60;99.90
16732;DHT22;8484;50.904;9.192;2023-03-23T15:13:29;13.60;99.90
16732;DHT22;8484;50.904;9.192;2023-03-23T15:16:02;13.50;99.90
16732;DHT22;8484;50.904;9.192;2023-03-23T15:18:34;13.50;99.90
16732;DHT22;8484;50.904;9.192;2023-03-23T15:21:09;13.60;99.90
16732;DHT22;8484;50.904;9.192;2023-03-23T15:23:41;13.50;99.90
16732;DHT22;8484;50.904;9.192;2023-03-23T15:26:23;13.60;99.90
16732;DHT22;8484;50.904;9.192;2023-03-23T15:29:12;13.50;99.90
16732;DHT22;8484;50.904;9.192;2023-03-23T15:31:43;13.50;99.90
16732;DHT22;8484;50.904;9.192;2023-03-23T15:34:20;13.50;99.90
16732;DHT22;8484;50.904;9.192;2023-03-23T15:36:54;13.50;99.90
16732;DHT22;8484;50.904;9.192;2023-03-23T15:39:22;13.50;99.90
16732;DHT22;8484;50.904;9.192;2023-03-23T15:41:50;13.60;99.90
16732;DHT22;8484;50.904;9.192;2023-03-23T15:44:25;13.70;99.90
16732;DHT22;8484;50.904;9.192;2023-03-23T15:47:04;13.70;99.90
16732;DHT22;8484;50.904;9.192;2023-03-23T15:49:40;13.60;99.90
16732;DHT22;8484;50.904;9.192;2023-03-23T15:52:09;13.50;99.90
16732;DHT22;8484;50.904;9.192;2023-03-23T15:54:37;13.50;99.90
16732;DHT22;8484;50.904;9.192;2023-03-23T15:57:04;13.40;99.90
16732;DHT22;8484;50.904;9.192;2023-03-23T15:59:31;13.40;99.90
16732;DHT22;8484;50.904;9.192;2023-03-23T16:01:57;13.40;99.90
16732;DHT22;8484;50.904;9.192;2023-03-23T16:04:24;13.40;99.90
16732;DHT22;8484;50.904;9.192;2023-03-23T16:06:55;13.40;99.90
16732;DHT22;8484;50.904;9.192;2023-03-23T16:09:23;13.30;99.90
16732;DHT22;8484;50.904;9.192;2023-03-23T16:11:50;13.30;99.90
16732;DHT22;8484;50.904;9.192;2023-03-23T16:14:17;13.20;99.90